sensor_id;sensor_type;location;lat;lon;timestamp;temperature;humidity
16810;DHT22;51744;50.872;4.730;2023-04-03T00:02:01;3.50;99.90
16810;DHT22;51744;50.872;4.730;2023-04-03T00:04:49;3.60;99.90
16810;DHT22;51744;50.872;4.730;2023-04-03T00:07:38;3.60;99.90
16810;DHT22;51744;50.872;4.730;2023-04-03T00:10:26;3.30;99.90
16810;DHT22;51744;50.872;4.730;2023-04-03T00:13:14;3.30;99.90
16810;DHT22;51744;50.872;4.730;2023-04-03T00:16:04;3.30;99.90
16810;DHT22;51744;50.872;4.730;2023-04-03T00:18:51;3.30;99.90
16810;DHT22;51744;50.872;4.730;2023-04-03T00:21:39;3.30;99.90
16810;DHT22;51744;50.872;4.730;2023-04-03T00:24:27;3.20;99.90
16810;DHT22;51744;50.872;4.730;2023-04-03T00:27:14;3.20;99.90
16810;DHT22;51744;50.872;4.730;2023-04-03T00:30:01;3.20;99.90
16810;DHT22;51744;50.872;4.730;2023-04-03T00:32:51;3.20;99.90
16810;DHT22;51744;50.872;4.730;2023-04-03T00:35:38;3.20;99.90
16810;DHT22;51744;50.872;4.730;2023-04-03T00:38:26;3.20;99.90
16810;DHT22;51744;50.872;4.730;2023-04-03T00:41:13;3.20;99.90
16810;DHT22;51744;50.872;4.730;2023-04-03T00:47:04;3.10;99.90
16810;DHT22;51744;50.872;4.730;2023-04-03T00:49:54;3.00;99.90
16810;DHT22;51744;50.872;4.730;2023-04-03T00:52:41;3.00;99.90
16810;DHT22;51744;50.872;4.730;2023-04-03T00:55:28;3.00;99.90
16810;DHT22;51744;50.872;4.730;2023-04-03T00:58:18;3.00;99.90
16810;DHT22;51744;50.872;4.730;2023-04-03T01:01:09;2.90;99.90
16810;DHT22;51744;50.872;4.730;2023-04-03T01:03:59;2.80;99.90
16810;DHT22;51744;50.872;4.730;2023-04-03T01:06:50;2.90;99.90
16810;DHT22;51744;50.872;4.730;2023-04-03T01:09:38;2.90;99.90
16810;DHT22;51744;50.872;4.730;2023-04-03T01:12:29;2.90;99.90
16810;DHT22;51744;50.872;4.730;2023-04-03T01:15:19;2.80;99.90
16810;DHT22;51744;50.872;4.730;2023-04-03T01:18:10;2.80;99.90
16810;DHT22;51744;50.872;4.730;2023-04-03T01:21:24;2.80;99.90
16810;DHT22;51744;50.872;4.730;2023-04-03T01:24:25;2.70;99.90
16810;DHT22;51744;50.872;4.730;2023-04-03T01:27:14;2.70;99.90
16810;DHT22;51744;50.872;4.730;2023-04-03T01:30:02;2.80;99.90
16810;DHT22;51744;50.872;4.730;2023-04-03T01:32:51;2.90;99.90
16810;DHT22;51744;50.872;4.730;2023-04-03T01:35:39;2.80;99.90
16810;DHT22;51744;50.872;4.730;2023-04-03T01:38:26;2.80;99.90
16810;DHT22;51744;50.872;4.730;2023-04-03T01:41:13;2.80;99.90
16810;DHT22;51744;50.872;4.730;2023-04-03T01:44:03;2.70;99.90
16810;DHT22;51744;50.872;4.730;2023-04-03T01:46:53;2.70;99.90
16810;DHT22;51744;50.872;4.730;2023-04-03T01:49:43;2.60;99.90
16810;DHT22;51744;50.872;4.730;2023-04-03T01:52:30;2.60;99.90
16810;DHT22;51744;50.872;4.730;2023-04-03T01:55:18;2.60;99.90
16810;DHT22;51744;50.872;4.730;2023-04-03T01:58:05;2.70;99.90
16810;DHT22;51744;50.872;4.730;2023-04-03T02:00:52;2.70;99.90
16810;DHT22;51744;50.872;4.730;2023-04-03T02:03:40;2.60;99.90
16810;DHT22;51744;50.872;4.730;2023-04-03T02:06:28;2.60;99.90
16810;DHT22;51744;50.872;4.730;2023-04-03T02:09:15;2.60;99.90
16810;DHT22;51744;50.872;4.730;2023-04-03T02:12:03;2.60;99.90
16810;DHT22;51744;50.872;4.730;2023-04-03T02:14:51;2.40;99.90
16810;DHT22;51744;50.872;4.730;2023-04-03T02:17:38;2.40;99.90
16810;DHT22;51744;50.872;4.730;2023-04-03T02:20:25;2.30;99.90
16810;DHT22;51744;50.872;4.730;2023-04-03T02:23:14;2.20;99.90
16810;DHT22;51744;50.872;4.730;2023-04-03T02:26:07;2.20;99.90
16810;DHT22;51744;50.872;4.730;2023-04-03T02:28:54;2.20;99.90
16810;DHT22;51744;50.872;4.730;2023-04-03T02:31:42;2.20;99.90
16810;DHT22;51744;50.872;4.730;2023-04-03T02:34:30;2.20;99.90
16810;DHT22;51744;50.872;4.730;2023-04-03T02:37:18;2.20;99.90
16810;DHT22;51744;50.872;4.730;2023-04-03T02:40:09;2.10;99.90
16810;DHT22;51744;50.872;4.730;2023-04-03T02:42:57;2.00;99.90
16810;DHT22;51744;50.872;4.730;2023-04-03T02:45:44;2.00;99.90
16810;DHT22;51744;50.872;4.730;2023-04-03T02:48:32;2.10;99.90
16810;DHT22;51744;50.872;4.730;2023-04-03T02:51:19;2.00;99.90
16810;DHT22;51744;50.872;4.730;2023-04-03T02:54:08;2.00;99.90
16810;DHT22;51744;50.872;4.730;2023-04-03T02:56:59;2.00;99.90
16810;DHT22;51744;50.872;4.730;2023-04-03T02:59:47;1.90;99.90
16810;DHT22;51744;50.872;4.730;2023-04-03T03:02:34;1.90;99.90
16810;DHT22;51744;50.872;4.730;2023-04-03T03:05:21;1.90;99.90
16810;DHT22;51744;50.872;4.730;2023-04-03T03:08:09;1.90;99.90
16810;DHT22;51744;50.872;4.730;2023-04-03T03:10:57;1.90;99.90
16810;DHT22;51744;50.872;4.730;2023-04-03T03:13:46;1.80;99.90
16810;DHT22;51744;50.872;4.730;2023-04-03T03:16:33;1.70;99.90
16810;DHT22;51744;50.872;4.730;2023-04-03T03:19:21;1.80;99.90
16810;DHT22;51744;50.872;4.730;2023-04-03T03:22:08;1.80;99.90
16810;DHT22;51744;50.872;4.730;2023-04-03T03:24:56;1.80;99.90
16810;DHT22;51744;50.872;4.730;2023-04-03T03:27:43;1.80;99.90
16810;DHT22;51744;50.872;4.730;2023-04-03T03:30:33;1.80;99.90
16810;DHT22;51744;50.872;4.730;2023-04-03T03:33:21;1.90;99.90
16810;DHT22;51744;50.872;4.730;2023-04-03T03:36:08;1.90;99.90
16810;DHT22;51744;50.872;4.730;2023-04-03T03:38:56;1.90;99.90
16810;DHT22;51744;50.872;4.730;2023-04-03T03:41:43;1.90;99.90
16810;DHT22;51744;50.872;4.730;2023-04-03T03:44:31;1.90;99.90
16810;DHT22;51744;50.872;4.730;2023-04-03T03:47:20;1.90;99.90
16810;DHT22;51744;50.872;4.730;2023-04-03T03:50:09;1.90;99.90
16810;DHT22;51744;50.872;4.730;2023-04-03T03:52:56;1.90;99.90
16810;DHT22;51744;50.872;4.730;2023-04-03T03:55:44;1.90;99.90
16810;DHT22;51744;50.872;4.730;2023-04-03T03:58:32;1.90;99.90
16810;DHT22;51744;50.872;4.730;2023-04-03T04:01:20;1.90;99.90
16810;DHT22;51744;50.872;4.730;2023-04-03T04:04:09;1.90;99.90
16810;DHT22;51744;50.872;4.730;2023-04-03T04:06:56;1.90;99.90
16810;DHT22;51744;50.872;4.730;2023-04-03T04:09:43;1.80;99.90
16810;DHT22;51744;50.872;4.730;2023-04-03T04:12:31;1.90;99.90
16810;DHT22;51744;50.872;4.730;2023-04-03T04:15:21;1.80;99.90
16810;DHT22;51744;50.872;4.730;2023-04-03T04:18:09;1.80;99.90
16810;DHT22;51744;50.872;4.730;2023-04-03T04:21:00;1.80;99.90
16810;DHT22;51744;50.872;4.730;2023-04-03T04:23:49;1.80;99.90
16810;DHT22;51744;50.872;4.730;2023-04-03T04:26:36;1.90;99.90
16810;DHT22;51744;50.872;4.730;2023-04-03T04:29:25;1.90;99.90
16810;DHT22;51744;50.872;4.730;2023-04-03T04:32:14;1.90;99.90
16810;DHT22;51744;50.872;4.730;2023-04-03T04:35:01;1.80;99.90
16810;DHT22;51744;50.872;4.730;2023-04-03T04:37:51;1.90;99.90
16810;DHT22;51744;50.872;4.730;2023-04-03T04:40:39;1.90;99.90
16810;DHT22;51744;50.872;4.730;2023-04-03T04:43:27;1.90;99.90
16810;DHT22;51744;50.872;4.730;2023-04-03T04:46:15;1.80;99.90
16810;DHT22;51744;50.872;4.730;2023-04-03T04:49:07;1.80;99.90
16810;DHT22;51744;50.872;4.730;2023-04-03T04:51:54;1.80;99.90
16810;DHT22;51744;50.872;4.730;2023-04-03T04:54:47;1.80;99.90
16810;DHT22;51744;50.872;4.730;2023-04-03T04:57:35;1.80;99.90
16810;DHT22;51744;50.872;4.730;2023-04-03T05:00:23;1.80;99.90
16810;DHT22;51744;50.872;4.730;2023-04-03T05:03:12;1.60;99.90
16810;DHT22;51744;50.872;4.730;2023-04-03T05:05:59;1.60;99.90
16810;DHT22;51744;50.872;4.730;2023-04-03T05:08:48;1.60;99.90
16810;DHT22;51744;50.872;4.730;2023-04-03T05:11:38;1.50;99.90
16810;DHT22;51744;50.872;4.730;2023-04-03T05:14:27;1.50;99.90
16810;DHT22;51744;50.872;4.730;2023-04-03T05:17:19;1.40;99.90
16810;DHT22;51744;50.872;4.730;2023-04-03T05:20:11;1.40;99.90
16810;DHT22;51744;50.872;4.730;2023-04-03T05:23:00;1.40;99.90
16810;DHT22;51744;50.872;4.730;2023-04-03T05:25:48;1.40;99.90
16810;DHT22;51744;50.872;4.730;2023-04-03T05:28:38;1.40;99.90
16810;DHT22;51744;50.872;4.730;2023-04-03T05:31:26;1.30;99.90
16810;DHT22;51744;50.872;4.730;2023-04-03T05:34:16;1.30;99.90
16810;DHT22;51744;50.872;4.730;2023-04-03T05:37:05;1.30;99.90
16810;DHT22;51744;50.872;4.730;2023-04-03T05:39:53;1.30;99.90
16810;DHT22;51744;50.872;4.730;2023-04-03T05:42:41;1.30;99.90
16810;DHT22;51744;50.872;4.730;2023-04-03T05:45:30;1.40;99.90
16810;DHT22;51744;50.872;4.730;2023-04-03T05:48:18;1.50;99.90
16810;DHT22;51744;50.872;4.730;2023-04-03T05:51:06;1.40;99.90
16810;DHT22;51744;50.872;4.730;2023-04-03T05:53:59;1.40;99.90
16810;DHT22;51744;50.872;4.730;2023-04-03T05:56:48;1.50;99.90
16810;DHT22;51744;50.872;4.730;2023-04-03T05:59:37;1.60;99.90
16810;DHT22;51744;50.872;4.730;2023-04-03T06:02:27;1.50;99.90
16810;DHT22;51744;50.872;4.730;2023-04-03T06:05:15;1.60;99.90
16810;DHT22;51744;50.872;4.730;2023-04-03T06:08:04;1.70;99.90
16810;DHT22;51744;50.872;4.730;2023-04-03T06:10:51;1.60;99.90
16810;DHT22;51744;50.872;4.730;2023-04-03T06:13:39;1.60;99.90
16810;DHT22;51744;50.872;4.730;2023-04-03T06:16:26;1.70;99.90
16810;DHT22;51744;50.872;4.730;2023-04-03T06:19:17;1.80;99.90
16810;DHT22;51744;50.872;4.730;2023-04-03T06:22:08;1.80;99.90
16810;DHT22;51744;50.872;4.730;2023-04-03T06:24:57;1.80;99.90
16810;DHT22;51744;50.872;4.730;2023-04-03T06:27:45;1.90;99.90
16810;DHT22;51744;50.872;4.730;2023-04-03T06:30:33;2.00;99.90
16810;DHT22;51744;50.872;4.730;2023-04-03T06:33:21;2.00;99.90
16810;DHT22;51744;50.872;4.730;2023-04-03T06:36:11;2.00;99.90
16810;DHT22;51744;50.872;4.730;2023-04-03T06:38:59;2.10;99.90
16810;DHT22;51744;50.872;4.730;2023-04-03T06:41:46;2.10;99.90
16810;DHT22;51744;50.872;4.730;2023-04-03T06:44:35;2.10;99.90
16810;DHT22;51744;50.872;4.730;2023-04-03T06:47:23;2.10;99.90
16810;DHT22;51744;50.872;4.730;2023-04-03T06:50:11;2.30;99.90
16810;DHT22;51744;50.872;4.730;2023-04-03T06:53:01;2.20;99.90
16810;DHT22;51744;50.872;4.730;2023-04-03T06:55:50;2.20;99.90
16810;DHT22;51744;50.872;4.730;2023-04-03T06:58:38;2.30;99.90
16810;DHT22;51744;50.872;4.730;2023-04-03T07:01:27;2.40;99.90
16810;DHT22;51744;50.872;4.730;2023-04-03T07:04:14;2.50;99.90
16810;DHT22;51744;50.872;4.730;2023-04-03T07:07:02;2.50;99.90
16810;DHT22;51744;50.872;4.730;2023-04-03T07:09:51;2.60;99.90
16810;DHT22;51744;50.872;4.730;2023-04-03T07:12:39;2.80;99.90
16810;DHT22;51744;50.872;4.730;2023-04-03T07:15:29;2.90;99.90
16810;DHT22;51744;50.872;4.730;2023-04-03T07:18:16;2.90;99.90
16810;DHT22;51744;50.872;4.730;2023-04-03T07:21:04;2.90;99.90
16810;DHT22;51744;50.872;4.730;2023-04-03T07:23:54;3.00;99.90
16810;DHT22;51744;50.872;4.730;2023-04-03T07:26:44;3.20;99.90
16810;DHT22;51744;50.872;4.730;2023-04-03T07:29:32;3.30;99.90
16810;DHT22;51744;50.872;4.730;2023-04-03T07:32:20;3.30;99.90
16810;DHT22;51744;50.872;4.730;2023-04-03T07:35:08;3.40;99.90
16810;DHT22;51744;50.872;4.730;2023-04-03T07:37:55;3.60;99.90
16810;DHT22;51744;50.872;4.730;2023-04-03T07:40:46;3.70;99.90
16810;DHT22;51744;50.872;4.730;2023-04-03T07:43:35;3.80;99.90
16810;DHT22;51744;50.872;4.730;2023-04-03T07:46:23;3.90;99.90
16810;DHT22;51744;50.872;4.730;2023-04-03T07:49:12;4.00;99.90
16810;DHT22;51744;50.872;4.730;2023-04-03T07:51:59;4.10;99.90
16810;DHT22;51744;50.872;4.730;2023-04-03T07:54:47;4.30;99.90
16810;DHT22;51744;50.872;4.730;2023-04-03T07:57:34;4.30;99.90
16810;DHT22;51744;50.872;4.730;2023-04-03T08:00:24;4.40;99.90
16810;DHT22;51744;50.872;4.730;2023-04-03T08:03:12;4.50;99.90
16810;DHT22;51744;50.872;4.730;2023-04-03T08:06:02;4.70;99.90
16810;DHT22;51744;50.872;4.730;2023-04-03T08:08:52;4.80;99.90
16810;DHT22;51744;50.872;4.730;2023-04-03T08:11:40;4.90;99.90
16810;DHT22;51744;50.872;4.730;2023-04-03T08:14:30;5.10;99.90
16810;DHT22;51744;50.872;4.730;2023-04-03T08:17:21;5.20;99.90
16810;DHT22;51744;50.872;4.730;2023-04-03T08:20:10;5.20;99.90
16810;DHT22;51744;50.872;4.730;2023-04-03T08:22:58;5.30;99.90
16810;DHT22;51744;50.872;4.730;2023-04-03T08:25:46;5.60;99.90
16810;DHT22;51744;50.872;4.730;2023-04-03T08:28:34;5.40;99.90
16810;DHT22;51744;50.872;4.730;2023-04-03T08:31:21;5.50;99.90
16810;DHT22;51744;50.872;4.730;2023-04-03T08:34:10;6.10;99.90
16810;DHT22;51744;50.872;4.730;2023-04-03T08:36:59;6.00;99.90
16810;DHT22;51744;50.872;4.730;2023-04-03T08:39:47;6.20;99.90
16810;DHT22;51744;50.872;4.730;2023-04-03T08:42:45;6.20;99.90
16810;DHT22;51744;50.872;4.730;2023-04-03T08:45:42;6.20;99.90
16810;DHT22;51744;50.872;4.730;2023-04-03T08:48:34;6.40;99.90
16810;DHT22;51744;50.872;4.730;2023-04-03T08:51:24;6.50;99.90
16810;DHT22;51744;50.872;4.730;2023-04-03T08:54:20;6.50;99.90
16810;DHT22;51744;50.872;4.730;2023-04-03T08:57:10;6.50;99.90
16810;DHT22;51744;50.872;4.730;2023-04-03T09:00:04;6.60;99.90
16810;DHT22;51744;50.872;4.730;2023-04-03T09:02:55;6.80;99.90
16810;DHT22;51744;50.872;4.730;2023-04-03T09:05:48;6.70;99.90
16810;DHT22;51744;50.872;4.730;2023-04-03T09:08:43;6.90;99.90
16810;DHT22;51744;50.872;4.730;2023-04-03T09:11:40;7.10;99.90
16810;DHT22;51744;50.872;4.730;2023-04-03T09:14:35;7.30;99.90
16810;DHT22;51744;50.872;4.730;2023-04-03T09:17:34;7.40;99.90
16810;DHT22;51744;50.872;4.730;2023-04-03T09:20:29;7.70;99.90
16810;DHT22;51744;50.872;4.730;2023-04-03T09:23:26;7.80;99.90
16810;DHT22;51744;50.872;4.730;2023-04-03T09:26:19;7.60;99.90
16810;DHT22;51744;50.872;4.730;2023-04-03T09:29:10;7.80;99.90
16810;DHT22;51744;50.872;4.730;2023-04-03T09:32:02;7.60;99.90
16810;DHT22;51744;50.872;4.730;2023-04-03T09:35:01;7.70;99.90
16810;DHT22;51744;50.872;4.730;2023-04-03T09:38:17;7.80;99.90
16810;DHT22;51744;50.872;4.730;2023-04-03T09:41:11;7.80;99.90
16810;DHT22;51744;50.872;4.730;2023-04-03T09:44:02;8.00;99.90
16810;DHT22;51744;50.872;4.730;2023-04-03T09:46:50;8.10;99.90
16810;DHT22;51744;50.872;4.730;2023-04-03T09:49:38;8.30;99.90
16810;DHT22;51744;50.872;4.730;2023-04-03T09:52:26;8.80;99.90
16810;DHT22;51744;50.872;4.730;2023-04-03T09:55:17;9.10;99.90
16810;DHT22;51744;50.872;4.730;2023-04-03T09:58:25;8.70;99.90
16810;DHT22;51744;50.872;4.730;2023-04-03T10:01:30;8.80;99.90
16810;DHT22;51744;50.872;4.730;2023-04-03T10:04:19;8.70;99.90
16810;DHT22;51744;50.872;4.730;2023-04-03T10:07:27;8.30;99.90
16810;DHT22;51744;50.872;4.730;2023-04-03T10:10:20;8.50;99.90
16810;DHT22;51744;50.872;4.730;2023-04-03T10:13:12;8.50;99.90
16810;DHT22;51744;50.872;4.730;2023-04-03T10:16:11;8.70;99.90
16810;DHT22;51744;50.872;4.730;2023-04-03T10:19:17;9.70;99.90
16810;DHT22;51744;50.872;4.730;2023-04-03T10:22:18;8.50;99.90
16810;DHT22;51744;50.872;4.730;2023-04-03T10:25:12;8.80;99.90
16810;DHT22;51744;50.872;4.730;2023-04-03T10:28:05;8.90;99.90
16810;DHT22;51744;50.872;4.730;2023-04-03T10:30:58;8.80;99.90
16810;DHT22;51744;50.872;4.730;2023-04-03T10:33:59;9.10;99.90
16810;DHT22;51744;50.872;4.730;2023-04-03T10:36:58;8.90;99.90
16810;DHT22;51744;50.872;4.730;2023-04-03T10:39:52;9.20;99.90
16810;DHT22;51744;50.872;4.730;2023-04-03T10:42:46;9.30;99.90
16810;DHT22;51744;50.872;4.730;2023-04-03T10:45:50;9.50;99.90
16810;DHT22;51744;50.872;4.730;2023-04-03T10:48:58;9.30;99.90
16810;DHT22;51744;50.872;4.730;2023-04-03T10:51:56;8.80;99.90
16810;DHT22;51744;50.872;4.730;2023-04-03T10:54:51;9.50;99.90
16810;DHT22;51744;50.872;4.730;2023-04-03T10:57:41;9.20;99.90
16810;DHT22;51744;50.872;4.730;2023-04-03T11:00:35;9.20;98.90
16810;DHT22;51744;50.872;4.730;2023-04-03T11:03:30;9.60;98.00
16810;DHT22;51744;50.872;4.730;2023-04-03T11:06:21;9.50;98.40
16810;DHT22;51744;50.872;4.730;2023-04-03T11:09:19;10.10;98.30
16810;DHT22;51744;50.872;4.730;2023-04-03T11:12:13;9.80;98.30
16810;DHT22;51744;50.872;4.730;2023-04-03T11:15:02;10.10;97.90
16810;DHT22;51744;50.872;4.730;2023-04-03T11:17:55;9.80;98.50
16810;DHT22;51744;50.872;4.730;2023-04-03T11:20:53;10.40;96.90
16810;DHT22;51744;50.872;4.730;2023-04-03T11:23:44;9.90;97.10
16810;DHT22;51744;50.872;4.730;2023-04-03T11:26:39;9.70;97.10
16810;DHT22;51744;50.872;4.730;2023-04-03T11:29:31;9.20;95.40
16810;DHT22;51744;50.872;4.730;2023-04-03T11:32:34;9.80;95.70
16810;DHT22;51744;50.872;4.730;2023-04-03T11:35:25;9.40;95.20
16810;DHT22;51744;50.872;4.730;2023-04-03T11:38:19;9.70;93.60
16810;DHT22;51744;50.872;4.730;2023-04-03T11:41:10;10.00;93.00
16810;DHT22;51744;50.872;4.730;2023-04-03T11:44:03;9.80;94.10
16810;DHT22;51744;50.872;4.730;2023-04-03T11:46:54;9.60;93.60
16810;DHT22;51744;50.872;4.730;2023-04-03T11:49:58;9.10;94.40
16810;DHT22;51744;50.872;4.730;2023-04-03T11:53:01;9.00;95.90
16810;DHT22;51744;50.872;4.730;2023-04-03T11:55:55;9.10;94.60
16810;DHT22;51744;50.872;4.730;2023-04-03T11:59:21;9.30;95.80
16810;DHT22;51744;50.872;4.730;2023-04-03T12:02:36;9.00;94.20
16810;DHT22;51744;50.872;4.730;2023-04-03T12:05:29;9.00;93.60
16810;DHT22;51744;50.872;4.730;2023-04-03T12:08:24;8.90;94.90
16810;DHT22;51744;50.872;4.730;2023-04-03T12:11:24;9.10;94.80
16810;DHT22;51744;50.872;4.730;2023-04-03T12:14:15;9.10;93.40
16810;DHT22;51744;50.872;4.730;2023-04-03T12:17:21;8.90;93.80
16810;DHT22;51744;50.872;4.730;2023-04-03T12:23:35;9.00;91.40
16810;DHT22;51744;50.872;4.730;2023-04-03T12:26:26;9.20;92.30
16810;DHT22;51744;50.872;4.730;2023-04-03T12:29:32;9.20;92.90
16810;DHT22;51744;50.872;4.730;2023-04-03T12:32:40;9.30;92.20
16810;DHT22;51744;50.872;4.730;2023-04-03T12:35:35;8.90;91.70
16810;DHT22;51744;50.872;4.730;2023-04-03T12:38:50;9.00;91.50
16810;DHT22;51744;50.872;4.730;2023-04-03T12:41:46;8.70;91.00
16810;DHT22;51744;50.872;4.730;2023-04-03T12:44:45;9.10;91.90
16810;DHT22;51744;50.872;4.730;2023-04-03T12:47:42;9.20;90.60
16810;DHT22;51744;50.872;4.730;2023-04-03T12:50:31;9.00;91.40
16810;DHT22;51744;50.872;4.730;2023-04-03T12:53:22;9.00;90.90
16810;DHT22;51744;50.872;4.730;2023-04-03T12:56:23;9.00;91.80
16810;DHT22;51744;50.872;4.730;2023-04-03T12:59:16;9.10;91.70
16810;DHT22;51744;50.872;4.730;2023-04-03T13:02:17;9.10;91.70
16810;DHT22;51744;50.872;4.730;2023-04-03T13:05:09;8.90;91.10
16810;DHT22;51744;50.872;4.730;2023-04-03T13:08:04;9.10;92.10
16810;DHT22;51744;50.872;4.730;2023-04-03T13:10:55;9.20;93.10
16810;DHT22;51744;50.872;4.730;2023-04-03T13:13:54;9.20;92.80
16810;DHT22;51744;50.872;4.730;2023-04-03T13:16:53;9.40;91.80
16810;DHT22;51744;50.872;4.730;2023-04-03T13:19:42;9.30;93.50
16810;DHT22;51744;50.872;4.730;2023-04-03T13:22:34;9.20;93.00
16810;DHT22;51744;50.872;4.730;2023-04-03T13:25:28;9.30;92.90
16810;DHT22;51744;50.872;4.730;2023-04-03T13:28:19;9.30;93.30
16810;DHT22;51744;50.872;4.730;2023-04-03T13:31:13;9.40;92.10
16810;DHT22;51744;50.872;4.730;2023-04-03T13:34:10;9.20;92.90
16810;DHT22;51744;50.872;4.730;2023-04-03T13:37:00;9.30;92.60
16810;DHT22;51744;50.872;4.730;2023-04-03T13:40:00;9.30;91.20
16810;DHT22;51744;50.872;4.730;2023-04-03T13:42:59;9.30;90.80
16810;DHT22;51744;50.872;4.730;2023-04-03T13:45:59;9.30;91.80
16810;DHT22;51744;50.872;4.730;2023-04-03T13:48:49;9.30;90.50
16810;DHT22;51744;50.872;4.730;2023-04-03T13:51:38;9.40;90.20
16810;DHT22;51744;50.872;4.730;2023-04-03T13:54:31;9.50;92.10
16810;DHT22;51744;50.872;4.730;2023-04-03T13:57:22;9.60;90.30
16810;DHT22;51744;50.872;4.730;2023-04-03T14:00:21;9.60;90.80
16810;DHT22;51744;50.872;4.730;2023-04-03T14:03:13;9.40;88.40
16810;DHT22;51744;50.872;4.730;2023-04-03T14:06:04;9.60;90.50
16810;DHT22;51744;50.872;4.730;2023-04-03T14:08:51;9.60;91.40
16810;DHT22;51744;50.872;4.730;2023-04-03T14:11:40;9.50;91.40
16810;DHT22;51744;50.872;4.730;2023-04-03T14:14:30;9.50;91.40
16810;DHT22;51744;50.872;4.730;2023-04-03T14:17:21;9.50;90.80
16810;DHT22;51744;50.872;4.730;2023-04-03T14:20:14;9.60;90.20
16810;DHT22;51744;50.872;4.730;2023-04-03T14:23:02;9.60;91.00
16810;DHT22;51744;50.872;4.730;2023-04-03T14:25:50;9.70;91.30
16810;DHT22;51744;50.872;4.730;2023-04-03T14:28:37;9.50;90.70
16810;DHT22;51744;50.872;4.730;2023-04-03T14:31:30;9.40;91.60
16810;DHT22;51744;50.872;4.730;2023-04-03T14:34:18;9.30;91.20
16810;DHT22;51744;50.872;4.730;2023-04-03T14:37:10;9.30;92.00
16810;DHT22;51744;50.872;4.730;2023-04-03T14:40:00;9.20;91.70
16810;DHT22;51744;50.872;4.730;2023-04-03T14:42:49;9.40;92.70
16810;DHT22;51744;50.872;4.730;2023-04-03T14:45:37;9.30;91.30
16810;DHT22;51744;50.872;4.730;2023-04-03T14:48:27;9.40;91.30
16810;DHT22;51744;50.872;4.730;2023-04-03T14:51:15;9.40;92.10
16810;DHT22;51744;50.872;4.730;2023-04-03T14:54:04;9.50;92.20
16810;DHT22;51744;50.872;4.730;2023-04-03T14:56:53;9.40;92.00
16810;DHT22;51744;50.872;4.730;2023-04-03T14:59:42;9.50;92.20
16810;DHT22;51744;50.872;4.730;2023-04-03T15:02:31;9.60;91.40
16810;DHT22;51744;50.872;4.730;2023-04-03T15:05:21;9.50;91.70
16810;DHT22;51744;50.872;4.730;2023-04-03T15:08:18;9.60;91.90
16810;DHT22;51744;50.872;4.730;2023-04-03T15:11:07;9.70;92.90
16810;DHT22;51744;50.872;4.730;2023-04-03T15:13:56;9.60;92.20
16810;DHT22;51744;50.872;4.730;2023-04-03T15:16:43;9.70;92.90
16810;DHT22;51744;50.872;4.730;2023-04-03T15:19:36;9.80;92.30
16810;DHT22;51744;50.872;4.730;2023-04-03T15:22:25;9.80;91.80
16810;DHT22;51744;50.872;4.730;2023-04-03T15:25:13;9.70;92.80
16810;DHT22;51744;50.872;4.730;2023-04-03T15:28:01;9.60;93.20
16810;DHT22;51744;50.872;4.730;2023-04-03T15:30:49;9.70;93.90
16810;DHT22;51744;50.872;4.730;2023-04-03T15:33:37;9.50;93.20
16810;DHT22;51744;50.872;4.730;2023-04-03T15:36:25;9.60;93.40
16810;DHT22;51744;50.872;4.730;2023-04-03T15:39:21;9.60;93.30
16810;DHT22;51744;50.872;4.730;2023-04-03T15:42:09;9.60;93.80
16810;DHT22;51744;50.872;4.730;2023-04-03T15:44:58;9.60;93.00
16810;DHT22;51744;50.872;4.730;2023-04-03T15:47:45;9.60;93.70
16810;DHT22;51744;50.872;4.730;2023-04-03T15:50:33;9.70;94.20
16810;DHT22;51744;50.872;4.730;2023-04-03T15:53:22;9.70;93.70
16810;DHT22;51744;50.872;4.730;2023-04-03T15:56:12;9.70;94.40
16810;DHT22;51744;50.872;4.730;2023-04-03T15:58:59;9.70;93.30
16810;DHT22;51744;50.872;4.730;2023-04-03T16:01:47;9.60;93.70
16810;DHT22;51744;50.872;4.730;2023-04-03T16:04:35;9.60;93.70
16810;DHT22;51744;50.872;4.730;2023-04-03T16:07:24;9.60;93.60
16810;DHT22;51744;50.872;4.730;2023-04-03T16:10:14;9.60;93.60
16810;DHT22;51744;50.872;4.730;2023-04-03T16:13:04;9.60;92.90
16810;DHT22;51744;50.872;4.730;2023-04-03T16:15:51;9.50;93.20
16810;DHT22;51744;50.872;4.730;2023-04-03T16:18:39;9.50;93.50
16810;DHT22;51744;50.872;4.730;2023-04-03T16:21:27;9.60;93.70
16810;DHT22;51744;50.872;4.730;2023-04-03T16:24:15;9.40;93.10
16810;DHT22;51744;50.872;4.730;2023-04-03T16:27:04;9.30;93.80
16810;DHT22;51744;50.872;4.730;2023-04-03T16:29:53;9.30;94.30
16810;DHT22;51744;50.872;4.730;2023-04-03T16:32:42;9.40;93.30
16810;DHT22;51744;50.872;4.730;2023-04-03T16:35:30;9.20;93.90
16810;DHT22;51744;50.872;4.730;2023-04-03T16:38:17;9.30;93.90
16810;DHT22;51744;50.872;4.730;2023-04-03T16:41:05;9.40;94.00
16810;DHT22;51744;50.872;4.730;2023-04-03T16:43:53;9.30;94.50
16810;DHT22;51744;50.872;4.730;2023-04-03T16:46:42;9.30;93.20
16810;DHT22;51744;50.872;4.730;2023-04-03T16:49:34;9.30;94.30
16810;DHT22;51744;50.872;4.730;2023-04-03T16:52:21;9.30;94.50
16810;DHT22;51744;50.872;4.730;2023-04-03T16:55:09;9.20;93.40
16810;DHT22;51744;50.872;4.730;2023-04-03T16:57:56;9.20;93.50
16810;DHT22;51744;50.872;4.730;2023-04-03T17:00:44;9.10;93.20
16810;DHT22;51744;50.872;4.730;2023-04-03T17:03:34;9.10;93.10
16810;DHT22;51744;50.872;4.730;2023-04-03T17:06:22;9.10;93.70
16810;DHT22;51744;50.872;4.730;2023-04-03T17:09:11;9.10;93.70
16810;DHT22;51744;50.872;4.730;2023-04-03T17:11:59;9.00;93.70
16810;DHT22;51744;50.872;4.730;2023-04-03T17:14:46;8.90;93.80
16810;DHT22;51744;50.872;4.730;2023-04-03T17:17:34;8.90;93.70
16810;DHT22;51744;50.872;4.730;2023-04-03T17:20:24;9.00;94.10
16810;DHT22;51744;50.872;4.730;2023-04-03T17:23:12;8.80;94.00
16810;DHT22;51744;50.872;4.730;2023-04-03T17:26:00;8.70;94.10
16810;DHT22;51744;50.872;4.730;2023-04-03T17:28:47;8.70;94.00
16810;DHT22;51744;50.872;4.730;2023-04-03T17:31:35;8.70;94.90
16810;DHT22;51744;50.872;4.730;2023-04-03T17:34:24;8.70;94.10
16810;DHT22;51744;50.872;4.730;2023-04-03T17:37:13;8.60;93.90
16810;DHT22;51744;50.872;4.730;2023-04-03T17:40:01;8.60;94.30
16810;DHT22;51744;50.872;4.730;2023-04-03T17:42:49;8.50;94.50
16810;DHT22;51744;50.872;4.730;2023-04-03T17:45:37;8.40;94.30
16810;DHT22;51744;50.872;4.730;2023-04-03T17:48:25;8.40;93.80
16810;DHT22;51744;50.872;4.730;2023-04-03T17:51:15;8.30;94.20
16810;DHT22;51744;50.872;4.730;2023-04-03T17:54:05;8.30;93.80
16810;DHT22;51744;50.872;4.730;2023-04-03T17:56:52;8.30;93.80
16810;DHT22;51744;50.872;4.730;2023-04-03T17:59:40;8.20;94.50
16810;DHT22;51744;50.872;4.730;2023-04-03T18:02:28;8.10;94.80
16810;DHT22;51744;50.872;4.730;2023-04-03T18:05:17;8.10;93.90
16810;DHT22;51744;50.872;4.730;2023-04-03T18:08:06;8.00;94.50
16810;DHT22;51744;50.872;4.730;2023-04-03T18:10:56;7.90;94.90
16810;DHT22;51744;50.872;4.730;2023-04-03T18:13:43;7.90;95.00
16810;DHT22;51744;50.872;4.730;2023-04-03T18:16:31;7.80;95.00
16810;DHT22;51744;50.872;4.730;2023-04-03T18:19:19;7.80;95.50
16810;DHT22;51744;50.872;4.730;2023-04-03T18:22:12;7.60;95.20